createdAt,value
2018-12-04T11:16:59.387Z,1009.09
2018-12-04T11:17:59.334Z,1009.08
2018-12-04T11:18:59.418Z,1009.14
2018-12-04T11:19:59.293Z,1009.08
2018-12-04T11:21:00.316Z,1009.15
2018-12-04T11:21:59.268Z,1009.11
2018-12-04T11:22:59.397Z,1009.12
2018-12-04T11:23:59.245Z,1009.03
2018-12-04T11:24:59.328Z,1009.09
2018-12-04T11:25:59.221Z,1009.16
2018-12-04T11:26:59.221Z,1009.17
2018-12-04T11:27:59.236Z,1009.21
2018-12-04T11:28:59.197Z,1009.21
2018-12-04T11:29:59.179Z,1009.22
2018-12-04T11:30:59.227Z,1009.19
2018-12-04T11:31:59.168Z,1009.22
2018-12-04T11:32:59.281Z,1009.24
2018-12-04T11:33:59.133Z,1009.27
2018-12-04T11:34:59.175Z,1009.30
2018-12-04T11:35:59.110Z,1009.32
2018-12-04T11:36:59.131Z,1009.34
2018-12-04T11:37:59.105Z,1009.39
2018-12-04T11:38:59.207Z,1009.37
2018-12-04T11:39:59.068Z,1009.34
2018-12-04T11:40:59.170Z,1009.38
2018-12-04T11:41:59.042Z,1009.38
2018-12-04T11:42:59.182Z,1009.51
2018-12-04T11:43:59.087Z,1009.50
2018-12-04T11:44:59.015Z,1009.45
2018-12-04T11:45:59.006Z,1009.45
2018-12-04T11:47:00.064Z,1009.43
2018-12-04T11:47:59.004Z,1009.48
2018-12-04T11:48:59.045Z,1009.56
2018-12-04T11:49:58.955Z,1009.62
2018-12-04T11:51:00.276Z,1009.50
2018-12-04T11:51:58.928Z,1009.58
2018-12-04T11:52:59.029Z,1009.60
2018-12-04T11:53:58.910Z,1009.62
2018-12-04T11:54:58.950Z,1009.61
2018-12-04T11:55:58.889Z,1009.68
2018-12-04T11:56:58.924Z,1009.70
2018-12-04T11:57:58.860Z,1009.65
2018-12-04T11:58:58.931Z,1009.70
2018-12-04T11:59:58.855Z,1009.69
2018-12-04T12:00:58.965Z,1009.81
2018-12-04T12:01:58.817Z,1009.83
2018-12-04T12:02:58.926Z,1009.80
2018-12-04T12:03:58.814Z,1009.74
2018-12-04T12:04:58.789Z,1009.78
2018-12-04T12:05:58.778Z,1009.78
2018-12-04T12:06:58.863Z,1009.73
2018-12-04T12:07:58.806Z,1009.87
2018-12-04T12:08:58.861Z,1009.93
2018-12-04T12:09:58.721Z,1009.93
2018-12-04T12:10:58.796Z,1009.83
2018-12-04T12:11:58.719Z,1009.93
2018-12-04T12:12:58.763Z,1009.94
2018-12-04T12:13:58.777Z,1009.93
2018-12-04T12:14:58.745Z,1009.94
2018-12-04T12:15:58.659Z,1009.88
2018-12-04T12:16:58.697Z,1009.85
2018-12-04T12:17:58.636Z,1009.88
2018-12-04T12:18:58.707Z,1009.94
2018-12-04T12:19:58.609Z,1009.91
2018-12-04T12:20:58.649Z,1009.88
2018-12-04T12:21:58.595Z,1009.92
2018-12-04T12:22:58.711Z,1009.98
2018-12-04T12:23:58.606Z,1010.00
2018-12-04T12:24:58.674Z,1009.96
2018-12-04T12:25:58.552Z,1009.94
2018-12-04T12:26:58.644Z,1010.02
2018-12-04T12:27:58.530Z,1010.01
2018-12-04T12:28:58.653Z,1009.97
2018-12-04T12:29:58.497Z,1010.08
2018-12-04T12:30:58.580Z,1010.11
2018-12-04T12:31:58.485Z,1010.06
2018-12-04T12:32:58.547Z,1010.06
2018-12-04T12:33:58.486Z,1010.03
2018-12-04T12:34:59.537Z,1010.05
2018-12-04T12:35:58.447Z,1010.09
2018-12-04T12:36:58.496Z,1010.11
2018-12-04T12:37:58.414Z,1010.11
2018-12-04T12:38:58.451Z,1010.20
2018-12-04T12:39:58.413Z,1010.19
2018-12-04T12:40:58.427Z,1010.14
2018-12-04T12:41:58.373Z,1010.13
2018-12-04T12:42:59.415Z,1010.21
2018-12-04T12:44:58.402Z,1010.19
2018-12-04T12:45:58.323Z,1010.18
2018-12-04T12:46:58.425Z,1010.24
2018-12-04T12:47:58.302Z,1010.26
2018-12-04T12:48:58.395Z,1010.28
2018-12-04T12:49:58.294Z,1010.30
2018-12-04T12:50:58.367Z,1010.30
2018-12-04T12:51:58.253Z,1010.26
2018-12-04T12:52:58.329Z,1010.35
2018-12-04T12:53:58.237Z,1010.36
2018-12-04T12:54:58.336Z,1010.32
2018-12-04T12:55:58.221Z,1010.39
2018-12-04T12:56:58.272Z,1010.29
2018-12-04T12:57:58.203Z,1010.34
2018-12-04T12:58:58.238Z,1010.36
2018-12-04T12:59:58.195Z,1010.39
2018-12-04T13:00:58.208Z,1010.47
2018-12-04T13:01:58.156Z,1010.47
2018-12-04T13:02:58.173Z,1010.51
2018-12-04T13:03:58.128Z,1010.56
2018-12-04T13:04:58.179Z,1010.49
2018-12-04T13:05:58.103Z,1010.47
2018-12-04T13:06:58.218Z,1010.52
2018-12-04T13:07:58.088Z,1010.48
2018-12-04T13:08:58.178Z,1010.54
2018-12-04T13:09:58.085Z,1010.63
2018-12-04T13:10:58.150Z,1010.67
2018-12-04T13:11:58.043Z,1010.55
2018-12-04T13:12:58.116Z,1010.52
2018-12-04T13:13:58.018Z,1010.66
2018-12-04T13:14:58.123Z,1010.65
2018-12-04T13:15:57.987Z,1010.74
2018-12-04T13:17:00.107Z,1010.75
2018-12-04T13:17:57.971Z,1010.81
2018-12-04T13:18:58.025Z,1010.73
2018-12-04T13:19:57.984Z,1010.71
2018-12-04T13:20:57.994Z,1010.72
2018-12-04T13:21:57.935Z,1010.84
2018-12-04T13:22:57.974Z,1010.88
2018-12-04T13:23:57.906Z,1010.80
2018-12-04T13:24:57.962Z,1010.94
2018-12-04T13:25:57.891Z,1010.88
2018-12-04T13:26:57.995Z,1010.97
2018-12-04T13:27:57.863Z,1010.97
2018-12-04T13:28:57.963Z,1010.99
2018-12-04T13:29:57.921Z,1010.96
2018-12-04T13:30:57.929Z,1010.92
2018-12-04T13:31:57.828Z,1010.97
2018-12-04T13:32:57.898Z,1010.98
2018-12-04T13:33:57.789Z,1010.97
2018-12-04T13:34:57.902Z,1011.10
2018-12-04T13:35:57.773Z,1011.11
2018-12-04T13:36:57.843Z,1011.15
2018-12-04T13:37:57.748Z,1011.14
2018-12-04T13:38:57.804Z,1011.21
2018-12-04T13:39:57.748Z,1011.18
2018-12-04T13:40:57.882Z,1011.24
2018-12-04T13:41:57.703Z,1011.17
2018-12-04T13:42:57.740Z,1011.22
2018-12-04T13:43:57.683Z,1011.30
2018-12-04T13:44:57.751Z,1011.39
2018-12-04T13:45:57.668Z,1011.32
2018-12-04T13:46:57.798Z,1011.36
2018-12-04T13:48:00.791Z,1011.43
2018-12-04T13:48:58.206Z,1011.40
2018-12-04T13:49:57.635Z,1011.38
2018-12-04T13:50:57.817Z,1011.38
2018-12-04T13:51:57.595Z,1011.46
2018-12-04T13:52:57.706Z,1011.45
2018-12-04T13:53:57.586Z,1011.34
2018-12-04T13:54:58.763Z,1011.44
2018-12-04T13:55:57.582Z,1011.40
2018-12-04T13:56:57.753Z,1011.49
2018-12-04T13:57:57.549Z,1011.51
2018-12-04T13:58:57.600Z,1011.48
2018-12-04T13:59:57.500Z,1011.52
2018-12-04T14:00:57.613Z,1011.51
2018-12-04T14:01:57.486Z,1011.52
2018-12-04T14:03:00.601Z,1011.48
2018-12-04T14:03:57.487Z,1011.55
2018-12-04T14:04:58.516Z,1011.64
2018-12-04T14:05:57.457Z,1011.57
2018-12-04T14:06:57.466Z,1011.62
2018-12-04T14:07:57.438Z,1011.67
2018-12-04T14:08:58.487Z,1011.69
2018-12-04T14:09:57.412Z,1011.78
2018-12-04T14:10:57.441Z,1011.79
2018-12-04T14:11:57.416Z,1011.81
2018-12-04T14:12:57.478Z,1011.87
2018-12-04T14:13:57.358Z,1011.87
2018-12-04T14:14:57.458Z,1011.86
2018-12-04T14:15:57.371Z,1011.95
2018-12-04T14:16:57.406Z,1011.91
2018-12-04T14:17:57.304Z,1011.98
2018-12-04T14:18:57.375Z,1012.06
2018-12-04T14:19:57.286Z,1012.02
2018-12-04T14:20:57.388Z,1011.96
2018-12-04T14:21:57.259Z,1012.13
2018-12-04T14:22:57.317Z,1011.99
2018-12-04T14:23:57.236Z,1012.18
2018-12-04T14:24:57.276Z,1012.12
2018-12-04T14:25:57.264Z,1012.14
2018-12-04T14:26:57.251Z,1012.20
2018-12-04T14:27:57.194Z,1012.25
2018-12-04T14:28:57.231Z,1012.26
2018-12-04T14:29:57.203Z,1012.27
2018-12-04T14:30:57.227Z,1012.21
2018-12-04T14:31:57.173Z,1012.31
2018-12-04T14:32:57.272Z,1012.33
2018-12-04T14:33:57.122Z,1012.33
2018-12-04T14:34:57.228Z,1012.41
2018-12-04T14:35:57.140Z,1012.35
2018-12-04T14:36:58.119Z,1012.37
2018-12-04T14:37:57.107Z,1012.38
2018-12-04T14:38:57.162Z,1012.43
2018-12-04T14:39:57.066Z,1012.40
2018-12-04T14:40:57.171Z,1012.53
2018-12-04T14:41:57.066Z,1012.47
2018-12-04T14:42:57.101Z,1012.54
2018-12-04T14:43:57.062Z,1012.55
2018-12-04T14:44:57.079Z,1012.57
2018-12-04T14:45:56.988Z,1012.57
2018-12-04T14:46:57.125Z,1012.63
2018-12-04T14:47:56.972Z,1012.60
2018-12-04T14:48:57.012Z,1012.66
2018-12-04T14:49:56.943Z,1012.66
2018-12-04T14:50:57.007Z,1012.66
2018-12-04T14:51:56.936Z,1012.76
2018-12-04T14:52:56.941Z,1012.81
2018-12-04T14:53:56.916Z,1012.77
2018-12-04T14:54:57.946Z,1012.87
2018-12-04T14:55:56.881Z,1012.81
2018-12-04T14:56:56.932Z,1012.84
2018-12-04T14:57:56.863Z,1012.92
2018-12-04T14:58:56.945Z,1012.82
2018-12-04T14:59:56.854Z,1012.93
2018-12-04T15:00:56.911Z,1012.92
2018-12-04T15:01:56.843Z,1012.89
2018-12-04T15:02:57.901Z,1012.97
2018-12-04T15:03:56.806Z,1012.96
2018-12-04T15:04:56.869Z,1013.00
2018-12-04T15:05:56.875Z,1013.06
2018-12-04T15:06:56.858Z,1013.05
2018-12-04T15:07:56.751Z,1013.00
2018-12-04T15:08:56.779Z,1013.13
2018-12-04T15:09:56.731Z,1013.13
2018-12-04T15:10:56.776Z,1013.13
2018-12-04T15:11:56.804Z,1013.14
2018-12-04T15:12:56.730Z,1013.17
2018-12-04T15:13:56.769Z,1013.15
2018-12-04T15:14:56.806Z,1013.31
2018-12-04T15:15:56.687Z,1013.36
2018-12-04T15:16:56.802Z,1013.37
2018-12-04T15:17:56.642Z,1013.40
2018-12-04T15:18:56.767Z,1013.37
2018-12-04T15:19:56.615Z,1013.42
2018-12-04T15:20:56.704Z,1013.30
2018-12-04T15:21:56.605Z,1013.39
2018-12-04T15:22:56.716Z,1013.48
2018-12-04T15:23:56.565Z,1013.45
2018-12-04T15:24:56.633Z,1013.49
2018-12-04T15:25:56.552Z,1013.52
2018-12-04T15:26:56.597Z,1013.59
2018-12-04T15:27:56.548Z,1013.57
2018-12-04T15:28:56.624Z,1013.61
2018-12-04T15:29:56.494Z,1013.53
2018-12-04T15:30:56.554Z,1013.59
2018-12-04T15:31:56.511Z,1013.59
2018-12-04T15:32:56.546Z,1013.59
2018-12-04T15:33:56.453Z,1013.64
2018-12-04T15:34:56.485Z,1013.64
2018-12-04T15:35:56.558Z,1013.66
2018-12-04T15:36:56.844Z,1013.67
2018-12-04T15:37:56.419Z,1013.65
2018-12-04T15:38:56.528Z,1013.74
2018-12-04T15:39:56.391Z,1013.78
2018-12-04T15:40:56.488Z,1013.83
2018-12-04T15:41:56.355Z,1013.81
2018-12-04T15:42:56.485Z,1013.78
2018-12-04T15:43:56.382Z,1013.86
2018-12-04T15:44:56.412Z,1013.94
2018-12-04T15:45:56.329Z,1013.90
2018-12-04T15:46:56.379Z,1013.88
2018-12-04T15:47:56.433Z,1013.97
2018-12-04T15:48:56.352Z,1013.93
2018-12-04T15:49:56.292Z,1013.99
2018-12-04T15:50:59.842Z,1013.92
2018-12-04T15:51:56.253Z,1013.94
2018-12-04T15:52:56.350Z,1013.95
2018-12-04T15:53:56.232Z,1014.00
2018-12-04T15:54:56.311Z,1013.96
2018-12-04T15:55:56.197Z,1014.02
2018-12-04T15:56:56.233Z,1014.05
2018-12-04T15:57:56.194Z,1014.02
2018-12-04T15:58:56.289Z,1014.03
2018-12-04T15:59:56.154Z,1014.07
2018-12-04T16:00:56.265Z,1014.15
2018-12-04T16:01:56.134Z,1014.16
2018-12-04T16:02:56.173Z,1014.14
2018-12-04T16:03:56.107Z,1014.15
2018-12-04T16:04:56.200Z,1014.19
2018-12-04T16:05:56.098Z,1014.14
2018-12-04T16:06:56.162Z,1014.22
2018-12-04T16:07:56.090Z,1014.17
2018-12-04T16:08:56.134Z,1014.19
2018-12-04T16:09:56.052Z,1014.11
2018-12-04T16:10:56.201Z,1014.19
2018-12-04T16:11:56.028Z,1014.22
2018-12-04T16:12:56.106Z,1014.24
2018-12-04T16:13:56.006Z,1014.30
2018-12-04T16:14:57.166Z,1014.25
2018-12-04T16:15:55.989Z,1014.33
2018-12-04T16:16:57.030Z,1014.28
2018-12-04T16:17:55.988Z,1014.25
2018-12-04T16:18:55.985Z,1014.38
2018-12-04T16:19:55.931Z,1014.34
2018-12-04T16:20:57.070Z,1014.39
2018-12-04T16:21:55.906Z,1014.39
2018-12-04T16:22:56.019Z,1014.45
2018-12-04T16:23:55.906Z,1014.45
2018-12-04T16:24:55.993Z,1014.45
2018-12-04T16:25:55.858Z,1014.47
2018-12-04T16:26:56.974Z,1014.52
2018-12-04T16:27:55.859Z,1014.54
2018-12-04T16:28:55.962Z,1014.62
2018-12-04T16:29:55.816Z,1014.65
2018-12-04T16:30:55.882Z,1014.66
2018-12-04T16:31:55.809Z,1014.71
2018-12-04T16:32:55.868Z,1014.74
2018-12-04T16:33:55.815Z,1014.73
2018-12-04T16:34:55.816Z,1014.75
2018-12-04T16:35:55.754Z,1014.76
2018-12-04T16:36:55.865Z,1014.83
2018-12-04T16:37:55.729Z,1014.85
2018-12-04T16:38:56.840Z,1014.84
2018-12-04T16:39:55.704Z,1014.87
2018-12-04T16:40:55.735Z,1014.87
2018-12-04T16:41:55.676Z,1014.93
2018-12-04T16:42:55.810Z,1014.89
2018-12-04T16:43:55.695Z,1014.90
2018-12-04T16:44:55.766Z,1014.97
2018-12-04T16:45:55.648Z,1014.92
2018-12-04T16:46:55.732Z,1014.97
2018-12-04T16:47:55.610Z,1014.98
2018-12-04T16:48:55.750Z,1015.00
2018-12-04T16:49:55.594Z,1015.01
2018-12-04T16:50:55.685Z,1015.00
2018-12-04T16:51:55.567Z,1015.00
2018-12-04T16:52:55.643Z,1015.03
2018-12-04T16:53:55.575Z,1015.09
2018-12-04T16:54:55.618Z,1015.16
2018-12-04T16:55:55.530Z,1015.24
2018-12-04T16:56:55.577Z,1015.19
2018-12-04T16:57:55.504Z,1015.24
2018-12-04T16:58:55.583Z,1015.31
2018-12-04T16:59:55.478Z,1015.26
2018-12-04T17:00:55.617Z,1015.32
2018-12-04T17:01:55.465Z,1015.25
2018-12-04T17:02:55.578Z,1015.28
2018-12-04T17:03:55.434Z,1015.29
2018-12-04T17:04:55.588Z,1015.26
2018-12-04T17:05:55.412Z,1015.30
2018-12-04T17:06:55.621Z,1015.26
2018-12-04T17:07:55.401Z,1015.30
2018-12-04T17:08:55.489Z,1015.34
2018-12-04T17:09:55.383Z,1015.36
2018-12-04T17:10:55.451Z,1015.33
2018-12-04T17:11:55.342Z,1015.32
2018-12-04T17:12:56.450Z,1015.40
2018-12-04T17:13:55.336Z,1015.36
2018-12-04T17:14:55.430Z,1015.41
2018-12-04T17:15:55.295Z,1015.45
2018-12-04T17:16:55.466Z,1015.48
2018-12-04T17:17:55.274Z,1015.48
2018-12-04T17:18:55.436Z,1015.43
2018-12-04T17:19:55.421Z,1015.53
2018-12-04T17:20:55.396Z,1015.54
2018-12-04T17:21:55.235Z,1015.45
2018-12-04T17:22:55.364Z,1015.51
2018-12-04T17:23:55.210Z,1015.58
2018-12-04T17:24:55.267Z,1015.53
2018-12-04T17:25:55.200Z,1015.55
2018-12-04T17:26:55.194Z,1015.55
2018-12-04T17:27:55.170Z,1015.65
2018-12-04T17:28:55.273Z,1015.73
2018-12-04T17:29:55.177Z,1015.65
2018-12-04T17:30:55.233Z,1015.70
2018-12-04T17:31:55.117Z,1015.68
2018-12-04T17:32:55.210Z,1015.72
2018-12-04T17:33:55.206Z,1015.73
2018-12-04T17:34:55.221Z,1015.71
2018-12-04T17:35:55.085Z,1015.75
2018-12-04T17:36:55.145Z,1015.81
2018-12-04T17:37:55.057Z,1015.76
2018-12-04T17:38:55.121Z,1015.69
2018-12-04T17:39:55.049Z,1015.76
2018-12-04T17:40:55.118Z,1015.73
2018-12-04T17:41:55.009Z,1015.80
2018-12-04T17:42:55.158Z,1015.83
2018-12-04T17:43:55.082Z,1015.85
2018-12-04T17:44:55.016Z,1015.82
2018-12-04T17:45:54.994Z,1015.83
2018-12-04T17:46:55.082Z,1015.91
2018-12-04T17:47:54.943Z,1015.87
2018-12-04T17:48:55.048Z,1015.88
2018-12-04T17:49:54.920Z,1015.86
2018-12-04T17:50:55.054Z,1015.90
2018-12-04T17:51:54.898Z,1015.86
2018-12-04T17:52:54.995Z,1015.93
2018-12-04T17:53:54.875Z,1015.96
2018-12-04T17:54:54.957Z,1015.97
2018-12-04T17:55:54.877Z,1016.00
2018-12-04T17:56:55.031Z,1015.94
2018-12-04T17:57:54.832Z,1015.97
2018-12-04T17:58:54.896Z,1015.90
2018-12-04T17:59:54.806Z,1015.96
2018-12-04T18:00:55.010Z,1015.94
2018-12-04T18:01:54.783Z,1015.91
2018-12-04T18:02:54.928Z,1015.97
2018-12-04T18:03:54.770Z,1016.02
2018-12-04T18:04:55.925Z,1016.02
2018-12-04T18:05:54.780Z,1016.05
2018-12-04T18:06:54.869Z,1016.02
2018-12-04T18:07:54.717Z,1016.07
2018-12-04T18:08:54.940Z,1016.11
2018-12-04T18:09:54.716Z,1016.14
2018-12-04T18:10:54.833Z,1016.11
2018-12-04T18:11:54.677Z,1016.12
2018-12-04T18:12:54.772Z,1016.12
2018-12-04T18:13:54.644Z,1016.11
2018-12-04T18:14:54.752Z,1016.17
2018-12-04T18:15:54.628Z,1016.15
2018-12-04T18:16:55.681Z,1016.19
2018-12-04T18:17:54.604Z,1016.27
2018-12-04T18:18:54.788Z,1016.25
2018-12-04T18:19:54.590Z,1016.17
2018-12-04T18:20:54.648Z,1016.26
2018-12-04T18:21:54.574Z,1016.31
2018-12-04T18:22:54.737Z,1016.35
2018-12-04T18:23:54.549Z,1016.28
2018-12-04T18:24:54.684Z,1016.28
2018-12-04T18:25:54.522Z,1016.35
2018-12-04T18:26:55.708Z,1016.38
2018-12-04T18:27:54.500Z,1016.39
2018-12-04T18:28:54.622Z,1016.44
2018-12-04T18:29:54.464Z,1016.37
2018-12-04T18:30:54.598Z,1016.48
2018-12-04T18:31:54.468Z,1016.38
2018-12-04T18:32:55.459Z,1016.46
2018-12-04T18:33:54.437Z,1016.46
2018-12-04T18:34:54.524Z,1016.41
2018-12-04T18:35:54.408Z,1016.48
2018-12-04T18:36:54.529Z,1016.45
2018-12-04T18:37:54.378Z,1016.50
2018-12-04T18:38:54.463Z,1016.45
2018-12-04T18:39:54.364Z,1016.48
2018-12-04T18:40:54.430Z,1016.51
2018-12-04T18:41:54.354Z,1016.53
2018-12-04T18:42:54.398Z,1016.55
2018-12-04T18:43:54.314Z,1016.53
2018-12-04T18:44:54.445Z,1016.55
2018-12-04T18:45:54.291Z,1016.54
2018-12-04T18:46:54.368Z,1016.57
2018-12-04T18:47:54.264Z,1016.56
2018-12-04T18:48:54.306Z,1016.54
2018-12-04T18:49:54.245Z,1016.51
2018-12-04T18:50:54.270Z,1016.48
2018-12-04T18:51:54.256Z,1016.55
2018-12-04T18:52:54.238Z,1016.50
2018-12-04T18:53:54.212Z,1016.44
2018-12-04T18:54:54.369Z,1016.52
2018-12-04T18:55:54.178Z,1016.50
2018-12-04T18:56:54.342Z,1016.51
2018-12-04T18:57:54.178Z,1016.52
2018-12-04T18:58:54.247Z,1016.55
2018-12-04T18:59:54.140Z,1016.55
2018-12-04T19:00:54.210Z,1016.56
2018-12-04T19:01:54.129Z,1016.60
2018-12-04T19:02:54.295Z,1016.64
2018-12-04T19:03:54.081Z,1016.67
2018-12-04T19:04:54.149Z,1016.70
2018-12-04T19:05:54.064Z,1016.70
2018-12-04T19:06:54.671Z,1016.72
2018-12-04T19:07:54.040Z,1016.70
2018-12-04T19:08:54.186Z,1016.69
2018-12-04T19:09:54.027Z,1016.73
2018-12-04T19:10:54.063Z,1016.80
2018-12-04T19:11:54.036Z,1016.77
2018-12-04T19:12:54.175Z,1016.78
2018-12-04T19:13:53.980Z,1016.77
2018-12-04T19:14:54.088Z,1016.75
2018-12-04T19:15:53.955Z,1016.86
2018-12-04T19:16:55.082Z,1016.83
2018-12-04T19:17:53.945Z,1016.85
2018-12-04T19:18:54.036Z,1016.84
2018-12-04T19:19:53.944Z,1016.87
2018-12-04T19:20:54.099Z,1016.87
2018-12-04T19:21:53.896Z,1016.92
2018-12-04T19:22:56.059Z,1016.91
2018-12-04T19:23:53.871Z,1016.98
2018-12-04T19:24:53.929Z,1016.99
2018-12-04T19:25:53.838Z,1016.94
2018-12-04T19:26:53.900Z,1016.96
2018-12-04T19:27:53.862Z,1016.91
2018-12-04T19:28:53.866Z,1017.03
2018-12-04T19:29:53.792Z,1017.00
2018-12-04T19:30:53.940Z,1017.08
2018-12-04T19:31:53.771Z,1017.02
2018-12-04T19:32:54.012Z,1017.07
2018-12-04T19:33:53.751Z,1017.09
2018-12-04T19:34:53.878Z,1017.03
2018-12-04T19:35:53.728Z,1017.10
2018-12-04T19:36:53.839Z,1017.02
2018-12-04T19:37:53.742Z,1017.08
2018-12-04T19:38:53.825Z,1017.05
2018-12-04T19:39:53.690Z,1017.12
2018-12-04T19:40:53.783Z,1017.11
2018-12-04T19:41:53.662Z,1017.18
2018-12-04T19:42:53.892Z,1017.19
2018-12-04T19:43:56.593Z,1017.19
2018-12-04T19:44:53.716Z,1017.22
2018-12-04T19:45:53.614Z,1017.26
2018-12-04T19:46:54.806Z,1017.12
2018-12-04T19:47:53.616Z,1017.18
2018-12-04T19:48:53.757Z,1017.26
2018-12-04T19:49:53.585Z,1017.32
2018-12-04T19:50:53.618Z,1017.36
2018-12-04T19:51:53.543Z,1017.33
2018-12-04T19:52:53.735Z,1017.23
2018-12-04T19:53:53.519Z,1017.39
2018-12-04T19:54:53.559Z,1017.32
2018-12-04T19:55:53.510Z,1017.25
2018-12-04T19:56:53.637Z,1017.36
2018-12-04T19:57:53.478Z,1017.36
2018-12-04T19:58:53.642Z,1017.38
